Fort Russell, Illinois
Current Conditions -  °F | °C
As of 2:15 AM on Sunday 26 Oct 2014 (Local Time) from KALN Reporting Station
Clear Clear  
Wind Chill: 55°   Ceiling: Unl
Heat Index: 55°   Visibility: 10mi
Dew Point: 44°   Wind: 3mph
Humidity: 67%   Direction: 30°NNE
Pressure: 30.02"   Gusts: NA
Location:  38.9045°N, 90.0089°W
Report Text: KALN 260715Z AUTO 03003KT 10SM CLR 13/07 A3002 RMK AO2 T01260067
Loading
Personal Weather Stations






























Interactive Weather Map
Tropical Storm Tracking
New forecast layout! Learn more

10-Day Weather Forecast

Advertisements
Track Severe Weather on mobile